»·PEaware :: GBUJP KIFP-KVGT

GBUJP :: KIFP-KVGT

FLIGHT INFORMATION

Flight Status: Arrived
Operator: Unknown
More flights by this operator :: More flights under this callsign
Pilot: Phil D. (20855)
Aircraft: PIPER PA-28 CHEROKEE ARCHER
(P28A)
More flights by this aircraft type
Origin: KIFP Laughlin/Bullhead Intl
United States
Destination: KVGT North Las Vegas
United States
More flights between these airports :: More routes between these airports
Route: 1L3 SEARCHLIGHT, KBVU, CORTEZ ROUTE
File this flight plan on PilotEdge
Remarks:
Altitude:
(Current/Filed)
6,500ft
Speed:
(Current/Filed)
95kts
Departed: 15-Feb-20 09:02 AM
Arrived: 15-Feb-20 10:03 AM
Distance/Time
Traveled:
70nm/1:00
Distance/Time
To Go:
Arrived

Flight Plot

Page will automatically refresh every two minutes.

Flight plan parsing failed; only flown route is shown


Map Options




Map Legend


Flown Route
Filed Route
Departure Airport
Arrival Airport
Navaid (VOR, NDB)
Fix

Horizontal Profiles

Position Reports

Time Latitude Longitude Heading Altitude Ground
Speed
15-Feb-20 08:39 35.160592 -114.556651 86 643ft 0kts
15-Feb-20 08:40 35.160592 -114.556651 86 643ft 0kts
15-Feb-20 08:41 35.160592 -114.556651 86 643ft 0kts
15-Feb-20 08:42 35.160592 -114.556651 86 643ft 0kts
15-Feb-20 08:43 35.160592 -114.556651 86 643ft 0kts
15-Feb-20 08:44 35.160592 -114.556650 86 643ft 0kts
15-Feb-20 08:45 35.160592 -114.556650 86 643ft 0kts
15-Feb-20 08:46 35.160593 -114.556649 86 643ft 0kts
15-Feb-20 08:47 35.160593 -114.556649 86 643ft 0kts
15-Feb-20 08:48 35.160593 -114.556648 86 643ft 0kts
15-Feb-20 08:49 35.160593 -114.556647 86 643ft 0kts
15-Feb-20 08:50 35.160593 -114.556647 86 643ft 0kts
15-Feb-20 08:51 35.160593 -114.556646 86 643ft 0kts
15-Feb-20 08:52 35.160593 -114.556646 86 643ft 0kts
15-Feb-20 08:53 35.160593 -114.556645 86 643ft 0kts
15-Feb-20 08:54 35.160593 -114.556644 86 643ft 0kts
15-Feb-20 08:55 35.160593 -114.556644 86 643ft 0kts
15-Feb-20 08:56 35.160593 -114.556643 86 643ft 0kts
15-Feb-20 08:57 35.163030 -114.558477 341 643ft 12kts
15-Feb-20 08:58 35.166175 -114.559308 268 643ft 0kts
15-Feb-20 08:59 35.166175 -114.559309 268 643ft 0kts
15-Feb-20 09:00 35.166173 -114.559409 268 643ft 9kts
15-Feb-20 09:01 35.149699 -114.559452 180 1084ft 84kts
15-Feb-20 09:02 35.143887 -114.578566 295 1895ft 87kts
15-Feb-20 09:03 35.149956 -114.606579 286 2584ft 85kts
15-Feb-20 09:04 35.155450 -114.634760 283 3195ft 86kts
15-Feb-20 09:05 35.160916 -114.663282 281 3746ft 84kts
15-Feb-20 09:06 35.166133 -114.693013 284 4046ft 98kts
15-Feb-20 09:07 35.174428 -114.724608 302 4096ft 97kts
15-Feb-20 09:08 35.189192 -114.752174 300 4356ft 96kts
15-Feb-20 09:09 35.201398 -114.777977 296 4857ft 86kts
15-Feb-20 09:10 35.210473 -114.805293 284 5227ft 87kts
15-Feb-20 09:11 35.218326 -114.833253 302 5632ft 87kts
15-Feb-20 09:12 35.233012 -114.861191 304 5508ft 101kts
15-Feb-20 09:13 35.257140 -114.869212 4 5449ft 96kts
15-Feb-20 09:14 35.283581 -114.868064 0 5685ft 88kts
15-Feb-20 09:15 35.308317 -114.867184 3 6042ft 89kts
15-Feb-20 09:16 35.333192 -114.866434 353 6383ft 90kts
15-Feb-20 09:17 35.359219 -114.873255 345 6424ft 98kts
15-Feb-20 09:18 35.385840 -114.881410 341 6321ft 98kts
15-Feb-20 09:19 35.410953 -114.893562 337 6266ft 98kts
15-Feb-20 09:20 35.435432 -114.906872 333 6488ft 96kts
15-Feb-20 09:21 35.461327 -114.910632 7 6617ft 100kts
15-Feb-20 09:22 35.489109 -114.904531 11 6681ft 102kts
15-Feb-20 09:23 35.516963 -114.898254 9 6688ft 99kts
15-Feb-20 09:24 35.543847 -114.892585 8 6603ft 97kts
15-Feb-20 09:25 35.570705 -114.887323 9 6513ft 97kts
15-Feb-20 09:26 35.597204 -114.883222 10 6470ft 96kts
15-Feb-20 09:27 35.623221 -114.876757 9 6448ft 94kts
15-Feb-20 09:28 35.649181 -114.871737 8 6428ft 94kts
15-Feb-20 09:29 35.674857 -114.865834 8 6433ft 92kts
15-Feb-20 09:30 35.700405 -114.861098 6 6441ft 92kts
15-Feb-20 09:31 35.726108 -114.857180 9 6449ft 92kts
15-Feb-20 09:32 35.751440 -114.850672 9 6455ft 93kts
15-Feb-20 09:33 35.776859 -114.845237 6 6455ft 92kts
15-Feb-20 09:34 35.802532 -114.841166 7 6457ft 92kts
15-Feb-20 09:35 35.827980 -114.834859 10 6461ft 93kts
15-Feb-20 09:36 35.853613 -114.830591 358 6465ft 93kts
15-Feb-20 09:37 35.877967 -114.838693 344 5930ft 95kts
15-Feb-20 09:39 35.903005 -114.845959 349 5530ft 91kts
15-Feb-20 09:40 35.928581 -114.848273 356 5588ft 91kts
15-Feb-20 09:41 35.953424 -114.850984 22 5640ft 91kts
15-Feb-20 09:42 35.976871 -114.838452 25 5157ft 92kts
15-Feb-20 09:43 36.000552 -114.827386 16 4229ft 91kts
15-Feb-20 09:44 36.024907 -114.817780 15 3497ft 93kts
15-Feb-20 09:45 36.048799 -114.806810 27 3574ft 95kts
15-Feb-20 09:46 36.073792 -114.797634 345 3556ft 98kts
15-Feb-20 09:47 36.092603 -114.820383 313 3589ft 94kts
15-Feb-20 09:48 36.111623 -114.843082 317 3602ft 95kts
15-Feb-20 09:49 36.125759 -114.869002 267 3574ft 96kts
15-Feb-20 09:50 36.132515 -114.900621 285 3590ft 95kts
15-Feb-20 09:51 36.141685 -114.931589 290 3582ft 96kts
15-Feb-20 09:52 36.145962 -114.964249 273 3566ft 96kts
15-Feb-20 09:53 36.148236 -114.997236 280 3561ft 96kts
15-Feb-20 09:54 36.152263 -115.030005 277 3554ft 96kts
15-Feb-20 09:55 36.156335 -115.062784 277 3549ft 96kts
15-Feb-20 09:56 36.160433 -115.095478 277 3538ft 95kts
15-Feb-20 09:57 36.166243 -115.127696 295 3494ft 96kts
15-Feb-20 09:58 36.180377 -115.155508 311 3431ft 93kts
15-Feb-20 09:59 36.192574 -115.177048 270 2905ft 77kts
15-Feb-20 09:59 36.192017 -115.198390 287 3128ft 77kts
15-Feb-20 10:01 36.212707 -115.222615 323 3152ft 77kts
15-Feb-20 10:01 36.220611 -115.210143 134 2577ft 80kts
15-Feb-20 10:02 36.210534 -115.198073 240 2207ft 7kts
15-Feb-20 10:04 36.209778 -115.198983 221 2207ft 7kts
15-Feb-20 10:04 36.209753 -115.199010 222 2207ft 0kts
15-Feb-20 10:05 36.209753 -115.199010 222 2207ft 0kts

Navigation Log

Ident Type
Flight plan parsing failed, navigation log unavailable